<?xml version="1.0" encoding="UTF-8" standalone="no" ?>
<gpx xmlns="http://www.topografix.com/GPX/1/1" xmlns:xsi="http://www.w3.org/2001/XMLSchema-instance" xsi:schemaLocation="http://www.topografix.com/GPX/1/1 http://www.topografix.com/GPX/1/1/gpx.xsd" version="1.1" creator="VisuGPX - https://www.visugpx.com">
  <metadata>
    <name>La gare - tunnel de la Piardière 14155748</name>
  </metadata>
  <trk>
    <name><![CDATA[14155748-La gare -tunnel de la Piardière]]></name>
    <trkseg>
      <trkpt lat="46.95351" lon="-0.90727">
        <ele>160</ele>
        <time>2022-01-24T10:14:46Z</time>
      </trkpt>
      <trkpt lat="46.95351" lon="-0.90727">
        <ele>160</ele>
        <time>2022-01-24T10:14:46Z</time>
      </trkpt>
      <trkpt lat="46.95362" lon="-0.90738">
        <ele>160</ele>
        <time>2022-01-24T10:14:57Z</time>
      </trkpt>
      <trkpt lat="46.95379" lon="-0.90811">
        <ele>159</ele>
        <time>2022-01-24T10:15:39Z</time>
      </trkpt>
      <trkpt lat="46.95331" lon="-0.90939">
        <ele>162</ele>
        <time>2022-01-24T10:16:59Z</time>
      </trkpt>
      <trkpt lat="46.95322" lon="-0.90995">
        <ele>162</ele>
        <time>2022-01-24T10:17:30Z</time>
      </trkpt>
      <trkpt lat="46.95327" lon="-0.91081">
        <ele>162</ele>
        <time>2022-01-24T10:18:17Z</time>
      </trkpt>
      <trkpt lat="46.9532" lon="-0.91114">
        <ele>162</ele>
        <time>2022-01-24T10:18:36Z</time>
      </trkpt>
      <trkpt lat="46.953" lon="-0.9117">
        <ele>163</ele>
        <time>2022-01-24T10:19:11Z</time>
      </trkpt>
      <trkpt lat="46.95287" lon="-0.91281">
        <ele>164</ele>
        <time>2022-01-24T10:20:12Z</time>
      </trkpt>
      <trkpt lat="46.9528" lon="-0.91366">
        <ele>164</ele>
        <time>2022-01-24T10:20:59Z</time>
      </trkpt>
      <trkpt lat="46.95285" lon="-0.91462">
        <ele>163</ele>
        <time>2022-01-24T10:21:52Z</time>
      </trkpt>
      <trkpt lat="46.953" lon="-0.91614">
        <ele>157</ele>
        <time>2022-01-24T10:23:16Z</time>
      </trkpt>
      <trkpt lat="46.953" lon="-0.91659">
        <ele>155</ele>
        <time>2022-01-24T10:23:40Z</time>
      </trkpt>
      <trkpt lat="46.95288" lon="-0.91695">
        <ele>155</ele>
        <time>2022-01-24T10:24:02Z</time>
      </trkpt>
      <trkpt lat="46.95237" lon="-0.91744">
        <ele>155</ele>
        <time>2022-01-24T10:24:51Z</time>
      </trkpt>
      <trkpt lat="46.95212" lon="-0.91777">
        <ele>156</ele>
        <time>2022-01-24T10:25:18Z</time>
      </trkpt>
      <trkpt lat="46.95201" lon="-0.91827">
        <ele>156</ele>
        <time>2022-01-24T10:25:47Z</time>
      </trkpt>
      <trkpt lat="46.95199" lon="-0.9197">
        <ele>155</ele>
        <time>2022-01-24T10:27:05Z</time>
      </trkpt>
      <trkpt lat="46.95181" lon="-0.92057">
        <ele>152</ele>
        <time>2022-01-24T10:27:54Z</time>
      </trkpt>
      <trkpt lat="46.95176" lon="-0.92081">
        <ele>151</ele>
        <time>2022-01-24T10:28:08Z</time>
      </trkpt>
      <trkpt lat="46.95178" lon="-0.92136">
        <ele>149</ele>
        <time>2022-01-24T10:28:38Z</time>
      </trkpt>
      <trkpt lat="46.95165" lon="-0.92157">
        <ele>148</ele>
        <time>2022-01-24T10:28:54Z</time>
      </trkpt>
      <trkpt lat="46.95121" lon="-0.92159">
        <ele>145</ele>
        <time>2022-01-24T10:29:29Z</time>
      </trkpt>
      <trkpt lat="46.95096" lon="-0.9218">
        <ele>142</ele>
        <time>2022-01-24T10:29:52Z</time>
      </trkpt>
      <trkpt lat="46.95074" lon="-0.92241">
        <ele>136</ele>
        <time>2022-01-24T10:30:30Z</time>
      </trkpt>
      <trkpt lat="46.9507" lon="-0.92386">
        <ele>126</ele>
        <time>2022-01-24T10:31:49Z</time>
      </trkpt>
      <trkpt lat="46.95012" lon="-0.92502">
        <ele>123</ele>
        <time>2022-01-24T10:33:08Z</time>
      </trkpt>
      <trkpt lat="46.94996" lon="-0.92497">
        <ele>123</ele>
        <time>2022-01-24T10:33:21Z</time>
      </trkpt>
      <trkpt lat="46.94929" lon="-0.92371">
        <ele>125</ele>
        <time>2022-01-24T10:34:48Z</time>
      </trkpt>
      <trkpt lat="46.94913" lon="-0.92263">
        <ele>124</ele>
        <time>2022-01-24T10:35:48Z</time>
      </trkpt>
      <trkpt lat="46.94905" lon="-0.92264">
        <ele>125</ele>
        <time>2022-01-24T10:35:55Z</time>
      </trkpt>
      <trkpt lat="46.94894" lon="-0.92277">
        <ele>126</ele>
        <time>2022-01-24T10:36:06Z</time>
      </trkpt>
      <trkpt lat="46.94866" lon="-0.92197">
        <ele>129</ele>
        <time>2022-01-24T10:36:55Z</time>
      </trkpt>
      <trkpt lat="46.94848" lon="-0.9217">
        <ele>130</ele>
        <time>2022-01-24T10:37:16Z</time>
      </trkpt>
      <trkpt lat="46.94837" lon="-0.92127">
        <ele>130</ele>
        <time>2022-01-24T10:37:41Z</time>
      </trkpt>
      <trkpt lat="46.94821" lon="-0.92092">
        <ele>131</ele>
        <time>2022-01-24T10:38:04Z</time>
      </trkpt>
      <trkpt lat="46.94804" lon="-0.92075">
        <ele>133</ele>
        <time>2022-01-24T10:38:21Z</time>
      </trkpt>
      <trkpt lat="46.948" lon="-0.92056">
        <ele>133</ele>
        <time>2022-01-24T10:38:31Z</time>
      </trkpt>
      <trkpt lat="46.94801" lon="-0.92021">
        <ele>132</ele>
        <time>2022-01-24T10:38:51Z</time>
      </trkpt>
      <trkpt lat="46.94788" lon="-0.91987">
        <ele>132</ele>
        <time>2022-01-24T10:39:12Z</time>
      </trkpt>
      <trkpt lat="46.94727" lon="-0.91873">
        <ele>132</ele>
        <time>2022-01-24T10:40:31Z</time>
      </trkpt>
      <trkpt lat="46.9475" lon="-0.91845">
        <ele>130</ele>
        <time>2022-01-24T10:40:55Z</time>
      </trkpt>
      <trkpt lat="46.94703" lon="-0.91767">
        <ele>135</ele>
        <time>2022-01-24T10:41:52Z</time>
      </trkpt>
      <trkpt lat="46.94651" lon="-0.91666">
        <ele>138</ele>
        <time>2022-01-24T10:43:01Z</time>
      </trkpt>
      <trkpt lat="46.9463" lon="-0.91531">
        <ele>142</ele>
        <time>2022-01-24T10:44:17Z</time>
      </trkpt>
      <trkpt lat="46.946" lon="-0.91449">
        <ele>146</ele>
        <time>2022-01-24T10:45:08Z</time>
      </trkpt>
      <trkpt lat="46.94549" lon="-0.91379">
        <ele>149</ele>
        <time>2022-01-24T10:46:04Z</time>
      </trkpt>
      <trkpt lat="46.94514" lon="-0.91362">
        <ele>147</ele>
        <time>2022-01-24T10:46:33Z</time>
      </trkpt>
      <trkpt lat="46.94491" lon="-0.91307">
        <ele>145</ele>
        <time>2022-01-24T10:47:08Z</time>
      </trkpt>
      <trkpt lat="46.94473" lon="-0.91248">
        <ele>145</ele>
        <time>2022-01-24T10:47:44Z</time>
      </trkpt>
      <trkpt lat="46.94479" lon="-0.91228">
        <ele>147</ele>
        <time>2022-01-24T10:47:56Z</time>
      </trkpt>
      <trkpt lat="46.9448" lon="-0.91212">
        <ele>148</ele>
        <time>2022-01-24T10:48:04Z</time>
      </trkpt>
      <trkpt lat="46.94459" lon="-0.91123">
        <ele>151</ele>
        <time>2022-01-24T10:48:56Z</time>
      </trkpt>
      <trkpt lat="46.94433" lon="-0.91094">
        <ele>151</ele>
        <time>2022-01-24T10:49:22Z</time>
      </trkpt>
      <trkpt lat="46.94357" lon="-0.90911">
        <ele>153</ele>
        <time>2022-01-24T10:51:19Z</time>
      </trkpt>
      <trkpt lat="46.9435" lon="-0.90874">
        <ele>153</ele>
        <time>2022-01-24T10:51:40Z</time>
      </trkpt>
      <trkpt lat="46.94358" lon="-0.90708">
        <ele>156</ele>
        <time>2022-01-24T10:53:11Z</time>
      </trkpt>
      <trkpt lat="46.94347" lon="-0.90638">
        <ele>156</ele>
        <time>2022-01-24T10:53:50Z</time>
      </trkpt>
      <trkpt lat="46.94358" lon="-0.90586">
        <ele>157</ele>
        <time>2022-01-24T10:54:20Z</time>
      </trkpt>
      <trkpt lat="46.94388" lon="-0.90525">
        <ele>158</ele>
        <time>2022-01-24T10:55:01Z</time>
      </trkpt>
      <trkpt lat="46.9441" lon="-0.90462">
        <ele>161</ele>
        <time>2022-01-24T10:55:40Z</time>
      </trkpt>
      <trkpt lat="46.94423" lon="-0.90388">
        <ele>165</ele>
        <time>2022-01-24T10:56:22Z</time>
      </trkpt>
      <trkpt lat="46.94429" lon="-0.90328">
        <ele>165</ele>
        <time>2022-01-24T10:56:55Z</time>
      </trkpt>
      <trkpt lat="46.94472" lon="-0.9027">
        <ele>168</ele>
        <time>2022-01-24T10:57:42Z</time>
      </trkpt>
      <trkpt lat="46.9455" lon="-0.90207">
        <ele>166</ele>
        <time>2022-01-24T10:58:53Z</time>
      </trkpt>
      <trkpt lat="46.94643" lon="-0.90105">
        <ele>162</ele>
        <time>2022-01-24T11:00:26Z</time>
      </trkpt>
      <trkpt lat="46.94797" lon="-0.90096">
        <ele>160</ele>
        <time>2022-01-24T11:02:29Z</time>
      </trkpt>
      <trkpt lat="46.94891" lon="-0.90159">
        <ele>159</ele>
        <time>2022-01-24T11:03:52Z</time>
      </trkpt>
      <trkpt lat="46.9512" lon="-0.90384">
        <ele>160</ele>
        <time>2022-01-24T11:07:33Z</time>
      </trkpt>
      <trkpt lat="46.95252" lon="-0.90569">
        <ele>161</ele>
        <time>2022-01-24T11:09:59Z</time>
      </trkpt>
      <trkpt lat="46.95363" lon="-0.90423">
        <ele>161</ele>
        <time>2022-01-24T11:11:59Z</time>
      </trkpt>
      <trkpt lat="46.95444" lon="-0.90371">
        <ele>162</ele>
        <time>2022-01-24T11:13:09Z</time>
      </trkpt>
      <trkpt lat="46.95505" lon="-0.90247">
        <ele>160</ele>
        <time>2022-01-24T11:14:33Z</time>
      </trkpt>
      <trkpt lat="46.95547" lon="-0.90191">
        <ele>156</ele>
        <time>2022-01-24T11:15:18Z</time>
      </trkpt>
      <trkpt lat="46.95611" lon="-0.90058">
        <ele>144</ele>
        <time>2022-01-24T11:16:47Z</time>
      </trkpt>
      <trkpt lat="46.95638" lon="-0.90057">
        <ele>144</ele>
        <time>2022-01-24T11:17:09Z</time>
      </trkpt>
      <trkpt lat="46.95663" lon="-0.90056">
        <ele>145</ele>
        <time>2022-01-24T11:17:29Z</time>
      </trkpt>
      <trkpt lat="46.95697" lon="-0.90065">
        <ele>144</ele>
        <time>2022-01-24T11:17:57Z</time>
      </trkpt>
      <trkpt lat="46.95712" lon="-0.90076">
        <ele>143</ele>
        <time>2022-01-24T11:18:10Z</time>
      </trkpt>
      <trkpt lat="46.95717" lon="-0.90072">
        <ele>143</ele>
        <time>2022-01-24T11:18:15Z</time>
      </trkpt>
      <trkpt lat="46.95734" lon="-0.90089">
        <ele>143</ele>
        <time>2022-01-24T11:18:31Z</time>
      </trkpt>
      <trkpt lat="46.95719" lon="-0.90149">
        <ele>148</ele>
        <time>2022-01-24T11:19:06Z</time>
      </trkpt>
      <trkpt lat="46.95719" lon="-0.90176">
        <ele>149</ele>
        <time>2022-01-24T11:19:21Z</time>
      </trkpt>
      <trkpt lat="46.95735" lon="-0.90194">
        <ele>149</ele>
        <time>2022-01-24T11:19:37Z</time>
      </trkpt>
      <trkpt lat="46.9573" lon="-0.90228">
        <ele>150</ele>
        <time>2022-01-24T11:19:56Z</time>
      </trkpt>
      <trkpt lat="46.95744" lon="-0.90261">
        <ele>150</ele>
        <time>2022-01-24T11:20:17Z</time>
      </trkpt>
      <trkpt lat="46.95758" lon="-0.90285">
        <ele>149</ele>
        <time>2022-01-24T11:20:34Z</time>
      </trkpt>
      <trkpt lat="46.9578" lon="-0.90305">
        <ele>150</ele>
        <time>2022-01-24T11:20:55Z</time>
      </trkpt>
      <trkpt lat="46.95774" lon="-0.90309">
        <ele>150</ele>
        <time>2022-01-24T11:21:00Z</time>
      </trkpt>
      <trkpt lat="46.95761" lon="-0.90382">
        <ele>148</ele>
        <time>2022-01-24T11:21:42Z</time>
      </trkpt>
      <trkpt lat="46.95751" lon="-0.90497">
        <ele>150</ele>
        <time>2022-01-24T11:22:45Z</time>
      </trkpt>
      <trkpt lat="46.95671" lon="-0.90602">
        <ele>153</ele>
        <time>2022-01-24T11:24:11Z</time>
      </trkpt>
      <trkpt lat="46.95626" lon="-0.90635">
        <ele>155</ele>
        <time>2022-01-24T11:24:51Z</time>
      </trkpt>
      <trkpt lat="46.95615" lon="-0.90606">
        <ele>156</ele>
        <time>2022-01-24T11:25:09Z</time>
      </trkpt>
      <trkpt lat="46.95608" lon="-0.90598">
        <ele>156</ele>
        <time>2022-01-24T11:25:17Z</time>
      </trkpt>
      <trkpt lat="46.95592" lon="-0.90589">
        <ele>157</ele>
        <time>2022-01-24T11:25:30Z</time>
      </trkpt>
      <trkpt lat="46.95571" lon="-0.90584">
        <ele>158</ele>
        <time>2022-01-24T11:25:47Z</time>
      </trkpt>
      <trkpt lat="46.95533" lon="-0.90582">
        <ele>159</ele>
        <time>2022-01-24T11:26:18Z</time>
      </trkpt>
      <trkpt lat="46.95529" lon="-0.90594">
        <ele>158</ele>
        <time>2022-01-24T11:26:25Z</time>
      </trkpt>
      <trkpt lat="46.95488" lon="-0.90578">
        <ele>159</ele>
        <time>2022-01-24T11:26:59Z</time>
      </trkpt>
      <trkpt lat="46.95487" lon="-0.90604">
        <ele>158</ele>
        <time>2022-01-24T11:27:13Z</time>
      </trkpt>
      <trkpt lat="46.95484" lon="-0.90635">
        <ele>158</ele>
        <time>2022-01-24T11:27:30Z</time>
      </trkpt>
      <trkpt lat="46.9547" lon="-0.90697">
        <ele>157</ele>
        <time>2022-01-24T11:28:06Z</time>
      </trkpt>
      <trkpt lat="46.95413" lon="-0.9071">
        <ele>159</ele>
        <time>2022-01-24T11:28:52Z</time>
      </trkpt>
      <trkpt lat="46.95366" lon="-0.90734">
        <ele>159</ele>
        <time>2022-01-24T11:29:32Z</time>
      </trkpt>
      <trkpt lat="46.95351" lon="-0.90727">
        <ele>160</ele>
        <time>2022-01-24T11:29:45Z</time>
      </trkpt>
    </trkseg>
  </trk>
</gpx>